Time;durP1;ratioP1;P1;durP2;ratioP2;P2;SDS_P1;SDS_P2;PMS_P1;PMS_P2;Temp;Humidity;BMP_temperature;BMP_pressure;BME280_temperature;BME280_humidity;BME280_pressure;Samples;Min_cycle;Max_cycle;Signal;HPM_P1;HPM_P2
2022/06/16 04:04:21;;;;;;;4.60;4.30;;;16.60;99.90;;;;;;5621471;22;20539;-72
2022/06/16 04:06:46;;;;;;;4.70;4.40;;;16.60;99.90;;;;;;5036611;28;20409;-72
2022/06/16 04:09:12;;;;;;;4.80;4.37;;;16.60;99.90;;;;;;5037069;28;20163;-70
2022/06/16 04:11:38;;;;;;;5.10;4.70;;;16.70;99.90;;;;;;5036644;28;20170;-70
2022/06/16 04:14:11;;;;;;;4.90;4.50;;;16.90;99.90;;;;;;5036378;28;20187;-73
2022/06/16 04:16:42;;;;;;;4.80;4.50;;;17.30;99.90;;;;;;5025374;28;20168;-70
2022/06/16 04:19:10;;;;;;;5.73;5.07;;;17.70;99.90;;;;;;5033587;28;20411;-70
2022/06/16 04:21:37;;;;;;;4.93;4.53;;;18.10;99.90;;;;;;5036808;28;20500;-70
2022/06/16 04:24:03;;;;;;;5.57;5.03;;;18.40;99.90;;;;;;5036055;28;20512;-70
2022/06/16 04:26:28;;;;;;;5.90;5.30;;;18.70;99.90;;;;;;5015216;28;20834;-70
2022/06/16 04:28:54;;;;;;;5.00;4.70;;;18.80;99.90;;;;;;5025256;28;20570;-70
2022/06/16 04:31:20;;;;;;;5.07;4.60;;;18.90;99.90;;;;;;5034380;28;20174;-70
2022/06/16 04:33:46;;;;;;;4.43;4.13;;;19.00;99.90;;;;;;5015094;28;20267;-70
2022/06/16 04:36:14;;;;;;;4.90;4.60;;;19.10;99.90;;;;;;5016465;28;20870;-70
2022/06/16 04:38:40;;;;;;;5.03;4.63;;;19.20;99.90;;;;;;5031677;28;20177;-70
2022/06/16 04:41:06;;;;;;;5.50;5.20;;;19.40;99.90;;;;;;5033164;28;20467;-70
2022/06/16 04:43:32;;;;;;;5.50;5.03;;;19.60;99.90;;;;;;5035581;28;20201;-70
2022/06/16 04:46:00;;;;;;;6.70;4.63;;;19.70;99.90;;;;;;5026949;28;20422;-70
2022/06/16 04:48:26;;;;;;;4.70;4.40;;;19.90;99.90;;;;;;5025661;28;20744;-70
2022/06/16 04:50:52;;;;;;;5.60;5.00;;;20.00;99.90;;;;;;5036120;28;20703;-70
2022/06/16 04:53:18;;;;;;;5.10;4.70;;;20.10;99.90;;;;;;5028791;28;20502;-69
2022/06/16 04:55:43;;;;;;;4.80;4.40;;;20.20;99.90;;;;;;5017363;28;20202;-69
2022/06/16 04:58:09;;;;;;;5.10;4.70;;;20.20;99.90;;;;;;5016121;28;20179;-69
2022/06/16 05:00:35;;;;;;;5.83;5.33;;;20.20;99.90;;;;;;5016036;28;20656;-69
2022/06/16 05:03:01;;;;;;;5.23;4.77;;;20.20;99.90;;;;;;5015521;28;20509;-69
2022/06/16 05:05:27;;;;;;;4.60;4.20;;;20.10;99.90;;;;;;5015107;28;20422;-69
2022/06/16 05:07:52;;;;;;;5.27;4.87;;;20.10;99.90;;;;;;5019115;28;20953;-69
2022/06/16 05:10:19;;;;;;;5.27;4.70;;;20.20;99.90;;;;;;5035511;28;20247;-69
2022/06/16 05:12:44;;;;;;;5.27;4.77;;;20.30;99.90;;;;;;5035398;28;20178;-69
2022/06/16 05:15:10;;;;;;;6.47;4.37;;;20.40;99.90;;;;;;5035405;28;20432;-69
2022/06/16 05:17:36;;;;;;;4.50;4.10;;;20.60;99.90;;;;;;5002925;28;20189;-69
2022/06/16 05:20:06;;;;;;;4.47;4.13;;;20.80;99.90;;;;;;5018346;28;20244;-68
2022/06/16 05:22:33;;;;;;;4.83;4.43;;;21.00;99.90;;;;;;5024745;28;20172;-69
2022/06/16 05:24:59;;;;;;;4.50;4.13;;;21.20;99.80;;;;;;4998282;28;20396;-69
2022/06/16 05:27:24;;;;;;;4.17;3.87;;;21.30;99.80;;;;;;5015851;28;20421;-70
2022/06/16 05:29:50;;;;;;;4.33;4.03;;;21.40;99.40;;;;;;5032726;28;20263;-66
2022/06/16 05:32:16;;;;;;;4.67;4.27;;;21.50;99.00;;;;;;5034012;28;20575;-62
2022/06/16 05:34:42;;;;;;;5.70;5.10;;;21.60;98.90;;;;;;5027199;28;20246;-63
2022/06/16 05:37:08;;;;;;;5.10;4.70;;;21.70;98.40;;;;;;5023436;28;20236;-63
2022/06/16 05:39:33;;;;;;;5.37;4.90;;;21.80;98.10;;;;;;5035089;28;20909;-63
2022/06/16 05:41:59;;;;;;;5.13;4.73;;;22.00;98.20;;;;;;5034987;28;20167;-64
2022/06/16 05:44:25;;;;;;;4.50;4.20;;;22.20;97.40;;;;;;5028126;28;20188;-64
2022/06/16 05:46:50;;;;;;;4.00;3.70;;;22.40;95.90;;;;;;5035262;28;20201;-62
2022/06/16 05:49:16;;;;;;;4.10;3.60;;;22.60;95.50;;;;;;5034899;28;20240;-63
2022/06/16 05:51:42;;;;;;;4.37;3.80;;;22.90;94.80;;;;;;5034192;28;20166;-63
2022/06/16 05:54:08;;;;;;;4.27;3.97;;;23.20;94.50;;;;;;5031548;28;20191;-63
2022/06/16 05:56:34;;;;;;;4.40;4.13;;;23.40;93.90;;;;;;5034987;28;20475;-64
2022/06/16 05:59:00;;;;;;;4.10;3.80;;;23.60;93.00;;;;;;5034974;28;20170;-66
2022/06/16 06:01:26;;;;;;;4.10;3.80;;;23.60;92.80;;;;;;5000011;28;20440;-66
2022/06/16 06:03:51;;;;;;;5.27;4.77;;;23.70;92.60;;;;;;5032512;28;20257;-66
2022/06/16 06:06:17;;;;;;;4.73;4.30;;;23.80;92.40;;;;;;5026282;28;20418;-65
2022/06/16 06:17:07;;;;;;;5.00;4.60;;;23.60;92.20;;;;;;5015697;28;20432;-66
2022/06/16 06:19:32;;;;;;;4.40;4.00;;;23.40;92.50;;;;;;5014720;28;20926;-66
2022/06/16 06:22:03;;;;;;;5.10;4.23;;;23.20;92.40;;;;;;5014685;28;20445;-66
2022/06/16 06:24:49;;;;;;;4.10;3.73;;;23.30;93.30;;;;;;5015016;28;20248;-65
2022/06/16 06:27:32;;;;;;;4.90;4.50;;;23.40;93.50;;;;;;5018863;28;20409;-66
2022/06/16 06:29:58;;;;;;;4.90;4.30;;;23.60;92.80;;;;;;5018661;28;20400;-67
2022/06/16 06:32:25;;;;;;;4.63;4.30;;;23.80;91.80;;;;;;5015606;28;20488;-66
2022/06/16 06:34:51;;;;;;;5.10;4.60;;;23.90;92.40;;;;;;5014300;28;20516;-65
2022/06/16 06:37:19;;;;;;;3.27;3.07;;;24.20;91.90;;;;;;5018535;28;20832;-64
2022/06/16 06:39:45;;;;;;;4.70;4.40;;;24.30;90.40;;;;;;5029062;28;20438;-65
2022/06/16 06:42:11;;;;;;;4.37;3.90;;;24.30;90.20;;;;;;5013923;28;20421;-65
2022/06/16 06:44:37;;;;;;;4.10;3.80;;;24.50;90.50;;;;;;5019832;28;20194;-65
2022/06/16 06:47:03;;;;;;;5.17;4.67;;;24.60;89.70;;;;;;5027824;28;20235;-64
2022/06/16 06:49:29;;;;;;;5.23;4.83;;;24.70;89.80;;;;;;5033682;28;20402;-63
2022/06/16 06:51:55;;;;;;;6.37;5.87;;;24.90;90.20;;;;;;4996453;28;20389;-67
2022/06/16 06:54:21;;;;;;;5.00;4.70;;;25.30;90.20;;;;;;5013548;28;20269;-66
2022/06/16 06:56:48;;;;;;;4.80;4.50;;;25.70;88.80;;;;;;5024680;28;20181;-67
2022/06/16 06:59:18;;;;;;;4.60;4.30;;;26.00;87.80;;;;;;5016507;28;20438;-66
2022/06/16 07:01:48;;;;;;;4.33;4.00;;;26.20;87.50;;;;;;5005421;28;20430;-68
2022/06/16 07:04:14;;;;;;;4.53;4.13;;;26.30;87.20;;;;;;5032443;28;20759;-68
2022/06/16 07:06:40;;;;;;;4.27;3.87;;;26.50;88.10;;;;;;5018268;28;20461;-66
2022/06/16 07:09:05;;;;;;;4.70;4.40;;;26.70;86.40;;;;;;5013886;28;20184;-65
2022/06/16 07:11:32;;;;;;;4.53;4.23;;;26.90;84.90;;;;;;5014896;28;20261;-65
2022/06/16 07:13:58;;;;;;;4.40;4.10;;;27.10;84.60;;;;;;5013177;28;20213;-65
2022/06/16 07:16:24;;;;;;;4.17;3.87;;;27.20;83.40;;;;;;5021763;28;20445;-65
2022/06/16 07:18:50;;;;;;;4.53;4.13;;;27.20;84.20;;;;;;5031743;28;20423;-65
2022/06/16 07:21:15;;;;;;;4.37;4.07;;;27.30;82.90;;;;;;5033257;28;20225;-65
2022/06/16 07:23:42;;;;;;;4.77;4.33;;;27.40;83.00;;;;;;5021375;28;20580;-65
2022/06/16 07:26:09;;;;;;;4.30;4.10;;;27.60;82.20;;;;;;5013447;28;20266;-65
2022/06/16 07:28:35;;;;;;;5.23;4.93;;;27.80;81.80;;;;;;5012480;28;20417;-66
2022/06/16 07:31:01;;;;;;;5.20;4.80;;;28.00;79.90;;;;;;5013465;28;20392;-65
2022/06/16 07:33:27;;;;;;;10.03;5.00;;;28.30;80.50;;;;;;5012938;28;20486;-65
2022/06/16 07:35:53;;;;;;;4.87;4.37;;;28.30;78.90;;;;;;5014684;28;20540;-65
2022/06/16 07:38:20;;;;;;;5.40;5.00;;;28.30;79.10;;;;;;5032430;28;20189;-66
2022/06/16 07:40:46;;;;;;;5.40;5.10;;;28.50;77.00;;;;;;5031418;28;20431;-65
2022/06/16 07:43:12;;;;;;;4.23;3.93;;;28.60;77.10;;;;;;5032757;28;22203;-67
2022/06/16 07:45:39;;;;;;;5.03;4.63;;;28.60;77.10;;;;;;5033142;28;20176;-68
2022/06/16 07:48:06;;;;;;;6.30;5.80;;;28.60;77.40;;;;;;5032960;28;20174;-72
2022/06/16 07:50:36;;;;;;;5.40;5.00;;;28.80;76.90;;;;;;5033583;28;20388;-69
2022/06/16 07:53:05;;;;;;;4.80;4.30;;;29.10;75.70;;;;;;5032677;28;20406;-69
2022/06/16 07:55:31;;;;;;;4.85;4.55;;;29.40;75.40;;;;;;5022162;28;20498;-68
2022/06/16 07:57:57;;;;;;;4.93;4.63;;;29.90;74.50;;;;;;5025190;28;20177;-67
2022/06/16 08:00:25;;;;;;;5.53;5.03;;;30.80;71.90;;;;;;5032810;28;20448;-72
2022/06/16 08:02:51;;;;;;;4.50;4.20;;;31.50;69.80;;;;;;5032367;28;20175;-71
2022/06/16 08:05:17;;;;;;;4.47;4.17;;;32.20;68.80;;;;;;5031981;28;20448;-68
